Time;durP1;ratioP1;P1;durP2;ratioP2;P2;SDS_P1;SDS_P2;PMS_P1;PMS_P2;Temp;Humidity;BMP_temperature;BMP_pressure;BME280_temperature;BME280_humidity;BME280_pressure;Samples;Min_cycle;Max_cycle;Signal;HPM_P1;HPM_P2
2021/03/01 00:01:02;;;;;;;26.3;14.83;;;5.2;99.9;;;;;;;;;
2021/03/01 00:02:02;;;;;;;24.93;15.77;;;5.1;99.9;;;;;;;;;
2021/03/01 00:03:02;;;;;;;22.5;15.5;;;5.1;99.9;;;;;;;;;
2021/03/01 00:03:12;;;;;;;22.5;15.5;;;5.1;99.9;;;;;;;;;
2021/03/01 00:04:02;;;;;;;25.9;15.67;;;5;99.9;;;;;;;;;
2021/03/01 00:04:13;;;;;;;25.9;15.67;;;5;99.9;;;;;;;;;
2021/03/01 00:05:02;;;;;;;21.57;14.83;;;5;99.9;;;;;;;;;
2021/03/01 00:05:15;;;;;;;21.57;14.83;;;5;99.9;;;;;;;;;
2021/03/01 00:05:25;;;;;;;25.57;15.17;;;5;99.9;;;;;;;;;
2021/03/01 00:06:02;;;;;;;25.57;15.17;;;5;99.9;;;;;;;;;
2021/03/01 00:06:17;;;;;;;25.57;15.17;;;5;99.9;;;;;;;;;
2021/03/01 00:06:27;;;;;;;25.57;15.23;;;4.9;99.9;;;;;;;;;
2021/03/01 00:07:02;;;;;;;25.57;15.23;;;4.9;99.9;;;;;;;;;
2021/03/01 00:07:13;;;;;;;25.57;15.23;;;4.9;99.9;;;;;;;;;
2021/03/01 00:07:28;;;;;;;24.93;15.5;;;4.9;99.9;;;;;;;;;
2021/03/01 00:07:38;;;;;;;24.93;15.5;;;4.9;99.9;;;;;;;;;
2021/03/01 00:08:02;;;;;;;24.93;15.5;;;4.9;99.9;;;;;;;;;
2021/03/01 00:08:14;;;;;;;24.93;15.5;;;4.9;99.9;;;;;;;;;
2021/03/01 00:08:30;;;;;;;23.57;15.07;;;5;99.9;;;;;;;;;
2021/03/01 00:08:40;;;;;;;23.57;15.07;;;5;99.9;;;;;;;;;
2021/03/01 00:09:02;;;;;;;23.57;15.07;;;5;99.9;;;;;;;;;
2021/03/01 00:09:16;;;;;;;23.57;15.07;;;5;99.9;;;;;;;;;
2021/03/01 00:09:26;;;;;;;21.5;14.13;;;5;99.9;;;;;;;;;
2021/03/01 00:09:41;;;;;;;21.5;14.13;;;5;99.9;;;;;;;;;
2021/03/01 00:09:51;;;;;;;21.5;14.13;;;5;99.9;;;;;;;;;
2021/03/01 00:10:02;;;;;;;21.5;14.13;;;5;99.9;;;;;;;;;
2021/03/01 00:10:12;;;;;;;21.5;14.13;;;5;99.9;;;;;;;;;
2021/03/01 00:10:27;;;;;;;22.5;15;;;5;99.9;;;;;;;;;
2021/03/01 00:10:43;;;;;;;22.5;15;;;5;99.9;;;;;;;;;
2021/03/01 00:10:53;;;;;;;22.5;15;;;5;99.9;;;;;;;;;
2021/03/01 00:11:02;;;;;;;22.5;15;;;5;99.9;;;;;;;;;
2021/03/01 00:11:13;;;;;;;22.5;15;;;5;99.9;;;;;;;;;
2021/03/01 00:11:29;;;;;;;25.33;15.4;;;4.9;99.9;;;;;;;;;
2021/03/01 00:11:39;;;;;;;25.33;15.4;;;4.9;99.9;;;;;;;;;
2021/03/01 00:11:54;;;;;;;25.33;15.4;;;4.9;99.9;;;;;;;;;
2021/03/01 00:12:02;;;;;;;25.33;15.4;;;4.9;99.9;;;;;;;;;
2021/03/01 00:12:05;;;;;;;25.33;15.4;;;4.9;99.9;;;;;;;;;
2021/03/01 00:12:15;;;;;;;25.33;15.4;;;4.9;99.9;;;;;;;;;
2021/03/01 00:12:25;;;;;;;22.33;15.23;;;4.9;99.9;;;;;;;;;
2021/03/01 00:12:41;;;;;;;22.33;15.23;;;4.9;99.9;;;;;;;;;
2021/03/01 00:12:56;;;;;;;22.33;15.23;;;4.9;99.9;;;;;;;;;
2021/03/01 00:13:02;;;;;;;22.33;15.23;;;4.9;99.9;;;;;;;;;
2021/03/01 00:13:06;;;;;;;22.33;15.23;;;4.9;99.9;;;;;;;;;
2021/03/01 00:13:16;;;;;;;22.33;15.23;;;4.9;99.9;;;;;;;;;
2021/03/01 00:13:27;;;;;;;20.5;15.17;;;5;99.9;;;;;;;;;
2021/03/01 00:13:42;;;;;;;20.5;15.17;;;5;99.9;;;;;;;;;
2021/03/01 00:13:52;;;;;;;20.5;15.17;;;5;99.9;;;;;;;;;
2021/03/01 00:14:02;;;;;;;20.5;15.17;;;5;99.9;;;;;;;;;
2021/03/01 00:14:07;;;;;;;20.5;15.17;;;5;99.9;;;;;;;;;
2021/03/01 00:14:13;;;;;;;20.5;15.17;;;5;99.9;;;;;;;;;
2021/03/01 00:14:28;;;;;;;23.43;15.53;;;5;99.9;;;;;;;;;
2021/03/01 00:14:38;;;;;;;23.43;15.53;;;5;99.9;;;;;;;;;
2021/03/01 00:14:54;;;;;;;23.43;15.53;;;5;99.9;;;;;;;;;
2021/03/01 00:15:01;;;;;;;23.43;15.53;;;5;99.9;;;;;;;;;
2021/03/01 00:15:09;;;;;;;23.43;15.53;;;5;99.9;;;;;;;;;
2021/03/01 00:15:14;;;;;;;23.43;15.53;;;5;99.9;;;;;;;;;
2021/03/01 00:15:30;;;;;;;23.57;15.87;;;5;99.9;;;;;;;;;
2021/03/01 00:15:40;;;;;;;23.57;15.87;;;5;99.9;;;;;;;;;
2021/03/01 00:15:55;;;;;;;23.57;15.87;;;5;99.9;;;;;;;;;
2021/03/01 00:16:02;;;;;;;23.57;15.87;;;5;99.9;;;;;;;;;
2021/03/01 00:16:05;;;;;;;23.57;15.87;;;5;99.9;;;;;;;;;
2021/03/01 00:16:15;;;;;;;23.57;15.87;;;5;99.9;;;;;;;;;
2021/03/01 00:16:26;;;;;;;23.57;15.87;;;5;99.9;;;;;;;;;
2021/03/01 00:16:41;;;;;;;21.77;15.23;;;5.1;99.9;;;;;;;;;
2021/03/01 00:16:51;;;;;;;21.77;15.23;;;5.1;99.9;;;;;;;;;
2021/03/01 00:17:02;;;;;;;21.77;15.23;;;5.1;99.9;;;;;;;;;
2021/03/01 00:17:07;;;;;;;21.77;15.23;;;5.1;99.9;;;;;;;;;
2021/03/01 00:17:17;;;;;;;21.77;15.23;;;5.1;99.9;;;;;;;;;
2021/03/01 00:17:27;;;;;;;25.17;15;;;5;99.9;;;;;;;;;
2021/03/01 00:17:42;;;;;;;25.17;15;;;5;99.9;;;;;;;;;
2021/03/01 00:17:53;;;;;;;25.17;15;;;5;99.9;;;;;;;;;
2021/03/01 00:18:02;;;;;;;25.17;15;;;5;99.9;;;;;;;;;
2021/03/01 00:18:08;;;;;;;25.17;15;;;5;99.9;;;;;;;;;
2021/03/01 00:18:13;;;;;;;25.17;15;;;5;99.9;;;;;;;;;
2021/03/01 00:18:29;;;;;;;22.13;14.8;;;5;99.9;;;;;;;;;
2021/03/01 00:18:39;;;;;;;22.13;14.8;;;5;99.9;;;;;;;;;
2021/03/01 00:18:54;;;;;;;22.13;14.8;;;5;99.9;;;;;;;;;
2021/03/01 00:19:02;;;;;;;22.13;14.8;;;5;99.9;;;;;;;;;
2021/03/01 00:19:04;;;;;;;22.13;14.8;;;5;99.9;;;;;;;;;
2021/03/01 00:19:15;;;;;;;22.13;14.8;;;5;99.9;;;;;;;;;
2021/03/01 00:19:30;;;;;;;22.2;14.87;;;5;99.9;;;;;;;;;
2021/03/01 00:19:40;;;;;;;22.2;14.87;;;5;99.9;;;;;;;;;
2021/03/01 00:19:56;;;;;;;22.2;14.87;;;5;99.9;;;;;;;;;
2021/03/01 00:20:01;;;;;;;22.2;14.87;;;5;99.9;;;;;;;;;
2021/03/01 00:20:06;;;;;;;22.2;14.87;;;5;99.9;;;;;;;;;
2021/03/01 00:20:16;;;;;;;22.2;14.87;;;5;99.9;;;;;;;;;
2021/03/01 00:20:26;;;;;;;22.2;14.87;;;5;99.9;;;;;;;;;
2021/03/01 00:20:42;;;;;;;20.97;14.3;;;5;99.9;;;;;;;;;
2021/03/01 00:20:52;;;;;;;20.97;14.3;;;5;99.9;;;;;;;;;
2021/03/01 00:21:02;;;;;;;20.97;14.3;;;5;99.9;;;;;;;;;
2021/03/01 00:21:07;;;;;;;20.97;14.3;;;5;99.9;;;;;;;;;
2021/03/01 00:21:12;;;;;;;20.97;14.3;;;5;99.9;;;;;;;;;
2021/03/01 00:21:28;;;;;;;23.53;14.93;;;5;99.9;;;;;;;;;
2021/03/01 00:21:43;;;;;;;23.53;14.93;;;5;99.9;;;;;;;;;
2021/03/01 00:21:54;;;;;;;23.53;14.93;;;5;99.9;;;;;;;;;
2021/03/01 00:22:02;;;;;;;23.53;14.93;;;5;99.9;;;;;;;;;
2021/03/01 00:22:09;;;;;;;23.53;14.93;;;5;99.9;;;;;;;;;
2021/03/01 00:22:14;;;;;;;23.53;14.93;;;5;99.9;;;;;;;;;
2021/03/01 00:22:29;;;;;;;22.53;15.27;;;5;99.9;;;;;;;;;
2021/03/01 00:22:39;;;;;;;22.53;15.27;;;5;99.9;;;;;;;;;
2021/03/01 00:22:55;;;;;;;22.53;15.27;;;5;99.9;;;;;;;;;
2021/03/01 00:23:02;;;;;;;22.53;15.27;;;5;99.9;;;;;;;;;
2021/03/01 00:23:05;;;;;;;22.53;15.27;;;5;99.9;;;;;;;;;
2021/03/01 00:23:15;;;;;;;22.53;15.27;;;5;99.9;;;;;;;;;
2021/03/01 00:23:26;;;;;;;22.53;15.27;;;5;99.9;;;;;;;;;
2021/03/01 00:23:41;;;;;;;23.63;14.67;;;5;99.9;;;;;;;;;
2021/03/01 00:23:56;;;;;;;23.63;14.67;;;5;99.9;;;;;;;;;
2021/03/01 00:24:02;;;;;;;23.63;14.67;;;5;99.9;;;;;;;;;
2021/03/01 00:24:07;;;;;;;23.63;14.67;;;5;99.9;;;;;;;;;
2021/03/01 00:24:17;;;;;;;23.63;14.67;;;5;99.9;;;;;;;;;
2021/03/01 00:24:27;;;;;;;23.63;14.67;;;5;99.9;;;;;;;;;
2021/03/01 00:24:42;;;;;;;24.63;16.87;;;5.1;99.9;;;;;;;;;
2021/03/01 00:24:53;;;;;;;24.63;16.87;;;5.1;99.9;;;;;;;;;
2021/03/01 00:25:01;;;;;;;24.63;16.87;;;5.1;99.9;;;;;;;;;
2021/03/01 00:25:08;;;;;;;24.63;16.87;;;5.1;99.9;;;;;;;;;
2021/03/01 00:25:13;;;;;;;24.63;16.87;;;5.1;99.9;;;;;;;;;
2021/03/01 00:25:28;;;;;;;24.63;16.87;;;5.1;99.9;;;;;;;;;
2021/03/01 00:25:40;;;;;;;23.5;15.27;;;5.1;99.9;;;;;;;;;
2021/03/01 00:25:54;;;;;;;23.5;15.27;;;5.1;99.9;;;;;;;;;
2021/03/01 00:26:02;;;;;;;23.5;15.27;;;5.1;99.9;;;;;;;;;
2021/03/01 00:26:10;;;;;;;23.5;15.27;;;5.1;99.9;;;;;;;;;
2021/03/01 00:26:15;;;;;;;23.5;15.27;;;5.1;99.9;;;;;;;;;
2021/03/01 00:26:30;;;;;;;25.17;15.53;;;5.1;99.9;;;;;;;;;
2021/03/01 00:26:40;;;;;;;25.17;15.53;;;5.1;99.9;;;;;;;;;
2021/03/01 00:26:55;;;;;;;25.17;15.53;;;5.1;99.9;;;;;;;;;
2021/03/01 00:27:02;;;;;;;25.17;15.53;;;5.1;99.9;;;;;;;;;
2021/03/01 00:27:06;;;;;;;25.17;15.53;;;5.1;99.9;;;;;;;;;
2021/03/01 00:27:16;;;;;;;25.17;15.53;;;5.1;99.9;;;;;;;;;
2021/03/01 00:27:26;;;;;;;25.17;15.53;;;5.1;99.9;;;;;;;;;
2021/03/01 00:27:42;;;;;;;22.2;15.6;;;5.1;99.9;;;;;;;;;
2021/03/01 00:27:52;;;;;;;22.2;15.6;;;5.1;99.9;;;;;;;;;
2021/03/01 00:28:02;;;;;;;22.2;15.6;;;5.1;99.9;;;;;;;;;
2021/03/01 00:28:07;;;;;;;22.2;15.6;;;5.1;99.9;;;;;;;;;
2021/03/01 00:28:12;;;;;;;22.2;15.6;;;5.1;99.9;;;;;;;;;
2021/03/01 00:28:28;;;;;;;22.2;15.6;;;5.1;99.9;;;;;;;;;
2021/03/01 00:28:44;;;;;;;23.27;15.73;;;5.1;99.9;;;;;;;;;
2021/03/01 00:28:53;;;;;;;23.27;15.73;;;5.1;99.9;;;;;;;;;
2021/03/01 00:29:02;;;;;;;23.27;15.73;;;5.1;99.9;;;;;;;;;
2021/03/01 00:29:09;;;;;;;23.27;15.73;;;5.1;99.9;;;;;;;;;
2021/03/01 00:29:14;;;;;;;23.27;15.73;;;5.1;99.9;;;;;;;;;
2021/03/01 00:29:29;;;;;;;23.27;15.73;;;5.1;99.9;;;;;;;;;
2021/03/01 00:29:39;;;;;;;25.1;16.63;;;5.2;99.9;;;;;;;;;
2021/03/01 00:29:55;;;;;;;25.1;16.63;;;5.2;99.9;;;;;;;;;
2021/03/01 00:30:01;;;;;;;25.1;16.63;;;5.2;99.9;;;;;;;;;
2021/03/01 00:30:05;;;;;;;25.1;16.63;;;5.2;99.9;;;;;;;;;
2021/03/01 00:30:15;;;;;;;25.1;16.63;;;5.2;99.9;;;;;;;;;
2021/03/01 00:30:25;;;;;;;25.1;16.63;;;5.2;99.9;;;;;;;;;
2021/03/01 00:30:41;;;;;;;23.63;16.33;;;5.2;99.9;;;;;;;;;
2021/03/01 00:30:56;;;;;;;23.63;16.33;;;5.2;99.9;;;;;;;;;
2021/03/01 00:31:02;;;;;;;23.63;16.33;;;5.2;99.9;;;;;;;;;
2021/03/01 00:31:06;;;;;;;23.63;16.33;;;5.2;99.9;;;;;;;;;
2021/03/01 00:31:17;;;;;;;23.63;16.33;;;5.2;99.9;;;;;;;;;
2021/03/01 00:31:27;;;;;;;23.63;16.33;;;5.2;99.9;;;;;;;;;
2021/03/01 00:31:42;;;;;;;23.53;16.3;;;5.3;99.9;;;;;;;;;
2021/03/01 00:31:52;;;;;;;23.53;16.3;;;5.3;99.9;;;;;;;;;
2021/03/01 00:32:01;;;;;;;23.53;16.3;;;5.3;99.9;;;;;;;;;
2021/03/01 00:32:08;;;;;;;23.53;16.3;;;5.3;99.9;;;;;;;;;
2021/03/01 00:32:13;;;;;;;23.53;16.3;;;5.3;99.9;;;;;;;;;
2021/03/01 00:32:28;;;;;;;23.53;16.3;;;5.3;99.9;;;;;;;;;
2021/03/01 00:32:38;;;;;;;23.07;15.53;;;5.3;99.9;;;;;;;;;
2021/03/01 00:32:54;;;;;;;23.07;15.53;;;5.3;99.9;;;;;;;;;
2021/03/01 00:33:02;;;;;;;23.07;15.53;;;5.3;99.9;;;;;;;;;
2021/03/01 00:33:09;;;;;;;23.07;15.53;;;5.3;99.9;;;;;;;;;
2021/03/01 00:33:14;;;;;;;23.07;15.53;;;5.3;99.9;;;;;;;;;
2021/03/01 00:33:30;;;;;;;23.07;15.53;;;5.3;99.9;;;;;;;;;
2021/03/01 00:33:40;;;;;;;24.37;16.8;;;5.2;99.9;;;;;;;;;
2021/03/01 00:33:55;;;;;;;24.37;16.8;;;5.2;99.9;;;;;;;;;
2021/03/01 00:34:02;;;;;;;24.37;16.8;;;5.2;99.9;;;;;;;;;
2021/03/01 00:34:06;;;;;;;24.37;16.8;;;5.2;99.9;;;;;;;;;
2021/03/01 00:34:16;;;;;;;24.37;16.8;;;5.2;99.9;;;;;;;;;
2021/03/01 00:34:26;;;;;;;24.37;16.8;;;5.2;99.9;;;;;;;;;
2021/03/01 00:34:41;;;;;;;24.9;16.93;;;5.2;99.9;;;;;;;;;
2021/03/01 00:34:52;;;;;;;24.9;16.93;;;5.2;99.9;;;;;;;;;
2021/03/01 00:35:01;;;;;;;24.9;16.93;;;5.2;99.9;;;;;;;;;
2021/03/01 00:35:07;;;;;;;24.9;16.93;;;5.2;99.9;;;;;;;;;
2021/03/01 00:35:12;;;;;;;24.9;16.93;;;5.2;99.9;;;;;;;;;
2021/03/01 00:35:27;;;;;;;24.9;16.93;;;5.2;99.9;;;;;;;;;
2021/03/01 00:35:43;;;;;;;23.6;15.5;;;5.2;99.9;;;;;;;;;
2021/03/01 00:35:53;;;;;;;23.6;15.5;;;5.2;99.9;;;;;;;;;
2021/03/01 00:36:02;;;;;;;23.6;15.5;;;5.2;99.9;;;;;;;;;
2021/03/01 00:36:08;;;;;;;23.6;15.5;;;5.2;99.9;;;;;;;;;
2021/03/01 00:36:14;;;;;;;23.6;15.5;;;5.2;99.9;;;;;;;;;
2021/03/01 00:36:29;;;;;;;23.6;15.5;;;5.2;99.9;;;;;;;;;
2021/03/01 00:36:39;;;;;;;24.77;16.2;;;5.1;99.9;;;;;;;;;
2021/03/01 00:36:54;;;;;;;24.77;16.2;;;5.1;99.9;;;;;;;;;
2021/03/01 00:37:01;;;;;;;24.77;16.2;;;5.1;99.9;;;;;;;;;
2021/03/01 00:37:05;;;;;;;24.77;16.2;;;5.1;99.9;;;;;;;;;
2021/03/01 00:37:15;;;;;;;24.77;16.2;;;5.1;99.9;;;;;;;;;
2021/03/01 00:37:26;;;;;;;24.77;16.2;;;5.1;99.9;;;;;;;;;
2021/03/01 00:37:41;;;;;;;25.13;15.5;;;5.1;99.9;;;;;;;;;
2021/03/01 00:37:56;;;;;;;25.13;15.5;;;5.1;99.9;;;;;;;;;
2021/03/01 00:38:02;;;;;;;25.13;15.5;;;5.1;99.9;;;;;;;;;
2021/03/01 00:38:06;;;;;;;25.13;15.5;;;5.1;99.9;;;;;;;;;
2021/03/01 00:38:16;;;;;;;25.13;15.5;;;5.1;99.9;;;;;;;;;
2021/03/01 00:38:27;;;;;;;25.13;15.5;;;5.1;99.9;;;;;;;;;
2021/03/01 00:38:42;;;;;;;27.77;16.4;;;5.1;99.9;;;;;;;;;
2021/03/01 00:38:52;;;;;;;27.77;16.4;;;5.1;99.9;;;;;;;;;
2021/03/01 00:39:02;;;;;;;27.77;16.4;;;5.1;99.9;;;;;;;;;
2021/03/01 00:39:08;;;;;;;27.77;16.4;;;5.1;99.9;;;;;;;;;
2021/03/01 00:39:13;;;;;;;27.77;16.4;;;5.1;99.9;;;;;;;;;
2021/03/01 00:39:28;;;;;;;27.77;16.4;;;5.1;99.9;;;;;;;;;
2021/03/01 00:39:38;;;;;;;25.3;15.53;;;5;99.9;;;;;;;;;
2021/03/01 00:39:54;;;;;;;25.3;15.53;;;5;99.9;;;;;;;;;
2021/03/01 00:40:01;;;;;;;25.3;15.53;;;5;99.9;;;;;;;;;
2021/03/01 00:40:09;;;;;;;25.3;15.53;;;5;99.9;;;;;;;;;
2021/03/01 00:40:14;;;;;;;25.3;15.53;;;5;99.9;;;;;;;;;
2021/03/01 00:40:30;;;;;;;25.3;15.53;;;5;99.9;;;;;;;;;
2021/03/01 00:40:40;;;;;;;24.17;16.27;;;5;99.9;;;;;;;;;
2021/03/01 00:40:55;;;;;;;24.17;16.27;;;5;99.9;;;;;;;;;
2021/03/01 00:41:02;;;;;;;24.17;16.27;;;5;99.9;;;;;;;;;
2021/03/01 00:41:05;;;;;;;24.17;16.27;;;5;99.9;;;;;;;;;
2021/03/01 00:41:16;;;;;;;24.17;16.27;;;5;99.9;;;;;;;;;
2021/03/01 00:41:26;;;;;;;24.17;16.27;;;5;99.9;;;;;;;;;
2021/03/01 00:41:41;;;;;;;24.77;16.43;;;4.9;99.9;;;;;;;;;
2021/03/01 00:41:51;;;;;;;24.77;16.43;;;4.9;99.9;;;;;;;;;
2021/03/01 00:42:01;;;;;;;24.77;16.43;;;4.9;99.9;;;;;;;;;
2021/03/01 00:42:07;;;;;;;24.77;16.43;;;4.9;99.9;;;;;;;;;
2021/03/01 00:42:17;;;;;;;24.77;16.43;;;4.9;99.9;;;;;;;;;
2021/03/01 00:42:27;;;;;;;24.77;16.43;;;4.9;99.9;;;;;;;;;
2021/03/01 00:42:43;;;;;;;24.63;16.57;;;5;99.9;;;;;;;;;
2021/03/01 00:42:53;;;;;;;24.63;16.57;;;5;99.9;;;;;;;;;
2021/03/01 00:43:02;;;;;;;24.63;16.57;;;5;99.9;;;;;;;;;
2021/03/01 00:43:08;;;;;;;24.63;16.57;;;5;99.9;;;;;;;;;
2021/03/01 00:43:13;;;;;;;24.63;16.57;;;5;99.9;;;;;;;;;
2021/03/01 00:43:29;;;;;;;24.63;16.57;;;5;99.9;;;;;;;;;
2021/03/01 00:43:39;;;;;;;25.5;16.7;;;5.1;99.9;;;;;;;;;
2021/03/01 00:43:54;;;;;;;25.5;16.7;;;5.1;99.9;;;;;;;;;
2021/03/01 00:44:02;;;;;;;25.5;16.7;;;5.1;99.9;;;;;;;;;
2021/03/01 00:44:05;;;;;;;25.5;16.7;;;5.1;99.9;;;;;;;;;
2021/03/01 00:44:15;;;;;;;25.5;16.7;;;5.1;99.9;;;;;;;;;
2021/03/01 00:44:31;;;;;;;25.5;16.7;;;5.1;99.9;;;;;;;;;
2021/03/01 00:44:40;;;;;;;27.87;16.93;;;5.2;99.9;;;;;;;;;
2021/03/01 00:44:56;;;;;;;27.87;16.93;;;5.2;99.9;;;;;;;;;
2021/03/01 00:45:02;;;;;;;27.87;16.93;;;5.2;99.9;;;;;;;;;
2021/03/01 00:45:06;;;;;;;27.87;16.93;;;5.2;99.9;;;;;;;;;
2021/03/01 00:45:16;;;;;;;27.87;16.93;;;5.2;99.9;;;;;;;;;
2021/03/01 00:45:27;;;;;;;27.87;16.93;;;5.2;99.9;;;;;;;;;
2021/03/01 00:45:42;;;;;;;28.83;16.93;;;5.2;99.9;;;;;;;;;
2021/03/01 00:45:52;;;;;;;28.83;16.93;;;5.2;99.9;;;;;;;;;
2021/03/01 00:46:02;;;;;;;28.83;16.93;;;5.2;99.9;;;;;;;;;
2021/03/01 00:46:07;;;;;;;28.83;16.93;;;5.2;99.9;;;;;;;;;
2021/03/01 00:46:13;;;;;;;28.83;16.93;;;5.2;99.9;;;;;;;;;
2021/03/01 00:46:28;;;;;;;28.83;16.93;;;5.2;99.9;;;;;;;;;
2021/03/01 00:46:43;;;;;;;25.8;16.57;;;5.2;99.9;;;;;;;;;
2021/03/01 00:46:53;;;;;;;25.8;16.57;;;5.2;99.9;;;;;;;;;
2021/03/01 00:47:01;;;;;;;25.8;16.57;;;5.2;99.9;;;;;;;;;
2021/03/01 00:47:09;;;;;;;25.8;16.57;;;5.2;99.9;;;;;;;;;
2021/03/01 00:47:19;;;;;;;25.8;16.57;;;5.2;99.9;;;;;;;;;
2021/03/01 00:47:29;;;;;;;25.8;16.57;;;5.2;99.9;;;;;;;;;
2021/03/01 00:47:40;;;;;;;25.93;16.83;;;5.2;99.9;;;;;;;;;
2021/03/01 00:47:55;;;;;;;25.93;16.83;;;5.2;99.9;;;;;;;;;
2021/03/01 00:48:02;;;;;;;25.93;16.83;;;5.2;99.9;;;;;;;;;
2021/03/01 00:48:05;;;;;;;25.93;16.83;;;5.2;99.9;;;;;;;;;
2021/03/01 00:48:15;;;;;;;25.93;16.83;;;5.2;99.9;;;;;;;;;
2021/03/01 00:48:26;;;;;;;25.93;16.83;;;5.2;99.9;;;;;;;;;
2021/03/01 00:48:41;;;;;;;26.83;16.97;;;5.2;99.9;;;;;;;;;
2021/03/01 00:48:57;;;;;;;26.83;16.97;;;5.2;99.9;;;;;;;;;
2021/03/01 00:49:02;;;;;;;26.83;16.97;;;5.2;99.9;;;;;;;;;
2021/03/01 00:49:07;;;;;;;26.83;16.97;;;5.2;99.9;;;;;;;;;
2021/03/01 00:49:12;;;;;;;26.83;16.97;;;5.2;99.9;;;;;;;;;
2021/03/01 00:49:32;;;;;;;26.83;16.97;;;5.2;99.9;;;;;;;;;
2021/03/01 00:49:42;;;;;;;22.73;16.43;;;5.2;99.9;;;;;;;;;
2021/03/01 00:49:53;;;;;;;22.73;16.43;;;5.2;99.9;;;;;;;;;
2021/03/01 00:50:02;;;;;;;22.73;16.43;;;5.2;99.9;;;;;;;;;
2021/03/01 00:50:08;;;;;;;22.73;16.43;;;5.2;99.9;;;;;;;;;
2021/03/01 00:50:13;;;;;;;22.73;16.43;;;5.2;99.9;;;;;;;;;
2021/03/01 00:50:29;;;;;;;22.73;16.43;;;5.2;99.9;;;;;;;;;
2021/03/01 00:50:39;;;;;;;26.8;16.47;;;5.2;99.9;;;;;;;;;
2021/03/01 00:50:54;;;;;;;26.8;16.47;;;5.2;99.9;;;;;;;;;
2021/03/01 00:51:02;;;;;;;26.8;16.47;;;5.2;99.9;;;;;;;;;
2021/03/01 00:51:10;;;;;;;26.8;16.47;;;5.2;99.9;;;;;;;;;
2021/03/01 00:51:15;;;;;;;26.8;16.47;;;5.2;99.9;;;;;;;;;
2021/03/01 00:51:25;;;;;;;26.8;16.47;;;5.2;99.9;;;;;;;;;
2021/03/01 00:51:45;;;;;;;25.8;17.1;;;5.2;99.9;;;;;;;;;
2021/03/01 00:51:56;;;;;;;25.8;17.1;;;5.2;99.9;;;;;;;;;
2021/03/01 00:52:01;;;;;;;25.8;17.1;;;5.2;99.9;;;;;;;;;
2021/03/01 00:52:06;;;;;;;25.8;17.1;;;5.2;99.9;;;;;;;;;
2021/03/01 00:52:16;;;;;;;25.8;17.1;;;5.2;99.9;;;;;;;;;
2021/03/01 00:52:26;;;;;;;25.8;17.1;;;5.2;99.9;;;;;;;;;
2021/03/01 00:52:42;;;;;;;24.73;16.57;;;5.1;99.9;;;;;;;;;
2021/03/01 00:52:52;;;;;;;24.73;16.57;;;5.1;99.9;;;;;;;;;
2021/03/01 00:53:02;;;;;;;24.73;16.57;;;5.1;99.9;;;;;;;;;
2021/03/01 00:53:07;;;;;;;24.73;16.57;;;5.1;99.9;;;;;;;;;
2021/03/01 00:53:12;;;;;;;24.73;16.57;;;5.1;99.9;;;;;;;;;
2021/03/01 00:53:28;;;;;;;24.73;16.57;;;5.1;99.9;;;;;;;;;
2021/03/01 00:53:38;;;;;;;28.77;16.27;;;5.1;99.9;;;;;;;;;
2021/03/01 00:53:58;;;;;;;28.77;16.27;;;5.1;99.9;;;;;;;;;
2021/03/01 00:54:01;;;;;;;28.77;16.27;;;5.1;99.9;;;;;;;;;
2021/03/01 00:54:09;;;;;;;28.77;16.27;;;5.1;99.9;;;;;;;;;
2021/03/01 00:54:14;;;;;;;28.77;16.27;;;5.1;99.9;;;;;;;;;
2021/03/01 00:54:29;;;;;;;28.77;16.27;;;5.1;99.9;;;;;;;;;
2021/03/01 00:54:39;;;;;;;23.7;15.8;;;5.1;99.9;;;;;;;;;
2021/03/01 00:54:55;;;;;;;23.7;15.8;;;5.1;99.9;;;;;;;;;
2021/03/01 00:55:02;;;;;;;23.7;15.8;;;5.1;99.9;;;;;;;;;
2021/03/01 00:55:05;;;;;;;23.7;15.8;;;5.1;99.9;;;;;;;;;
2021/03/01 00:55:16;;;;;;;23.7;15.8;;;5.1;99.9;;;;;;;;;
2021/03/01 00:55:31;;;;;;;23.7;15.8;;;5.1;99.9;;;;;;;;;
2021/03/01 00:55:41;;;;;;;24.57;15.2;;;5.2;99.9;;;;;;;;;
2021/03/01 00:55:51;;;;;;;24.57;15.2;;;5.2;99.9;;;;;;;;;
2021/03/01 00:56:02;;;;;;;24.57;15.2;;;5.2;99.9;;;;;;;;;
2021/03/01 00:56:12;;;;;;;24.57;15.2;;;5.2;99.9;;;;;;;;;
2021/03/01 00:56:12;;;;;;;24.57;15.2;;;5.2;99.9;;;;;;;;;
2021/03/01 00:56:27;;;;;;;24.57;15.2;;;5.2;99.9;;;;;;;;;
2021/03/01 00:56:42;;;;;;;23.6;15.3;;;5.2;99.9;;;;;;;;;
2021/03/01 00:56:53;;;;;;;23.6;15.3;;;5.2;99.9;;;;;;;;;
2021/03/01 00:57:01;;;;;;;23.6;15.3;;;5.2;99.9;;;;;;;;;
2021/03/01 00:57:08;;;;;;;23.6;15.3;;;5.2;99.9;;;;;;;;;
2021/03/01 00:57:13;;;;;;;23.6;15.3;;;5.2;99.9;;;;;;;;;
2021/03/01 00:57:28;;;;;;;23.6;15.3;;;5.2;99.9;;;;;;;;;
2021/03/01 00:57:44;;;;;;;24.43;15.5;;;5.2;99.9;;;;;;;;;
2021/03/01 00:57:54;;;;;;;24.43;15.5;;;5.2;99.9;;;;;;;;;
2021/03/01 00:58:02;;;;;;;24.43;15.5;;;5.2;99.9;;;;;;;;;
2021/03/01 00:58:04;;;;;;;24.43;15.5;;;5.2;99.9;;;;;;;;;
2021/03/01 00:58:14;;;;;;;24.43;15.5;;;5.2;99.9;;;;;;;;;
2021/03/01 00:58:25;;;;;;;24.43;15.5;;;5.2;99.9;;;;;;;;;
2021/03/01 00:58:40;;;;;;;27.03;16.83;;;5.1;99.9;;;;;;;;;
2021/03/01 00:58:55;;;;;;;27.03;16.83;;;5.1;99.9;;;;;;;;;
2021/03/01 00:59:01;;;;;;;27.03;16.83;;;5.1;99.9;;;;;;;;;
2021/03/01 00:59:06;;;;;;;27.03;16.83;;;5.1;99.9;;;;;;;;;
2021/03/01 00:59:16;;;;;;;27.03;16.83;;;5.1;99.9;;;;;;;;;
2021/03/01 00:59:28;;;;;;;27.03;16.83;;;5.1;99.9;;;;;;;;;
2021/03/01 00:59:42;;;;;;;25.1;16.17;;;5;99.9;;;;;;;;;
2021/03/01 00:59:57;;;;;;;25.1;16.17;;;5;99.9;;;;;;;;;
2021/03/01 01:00:02;;;;;;;25.1;16.17;;;5;99.9;;;;;;;;;
2021/03/01 01:00:07;;;;;;;25.1;16.17;;;5;99.9;;;;;;;;;
2021/03/01 01:00:12;;;;;;;25.1;16.17;;;5;99.9;;;;;;;;;
2021/03/01 01:00:28;;;;;;;25.1;16.17;;;5;99.9;;;;;;;;;
2021/03/01 01:00:38;;;;;;;25.1;16.17;;;5;99.9;;;;;;;;;
2021/03/01 01:00:53;;;;;;;22.63;14.3;;;5.1;99.9;;;;;;;;;
2021/03/01 01:01:02;;;;;;;22.63;14.3;;;5.1;99.9;;;;;;;;;
2021/03/01 01:01:09;;;;;;;22.63;14.3;;;5.1;99.9;;;;;;;;;
2021/03/01 01:01:14;;;;;;;22.63;14.3;;;5.1;99.9;;;;;;;;;
2021/03/01 01:01:29;;;;;;;22.63;14.3;;;5.1;99.9;;;;;;;;;
2021/03/01 01:01:39;;;;;;;22.63;14.3;;;5.1;99.9;;;;;;;;;
2021/03/01 01:01:55;;;;;;;22.97;15.9;;;5.2;99.9;;;;;;;;;
2021/03/01 01:02:01;;;;;;;22.97;15.9;;;5.2;99.9;;;;;;;;;
2021/03/01 01:02:10;;;;;;;22.97;15.9;;;5.2;99.9;;;;;;;;;
2021/03/01 01:02:20;;;;;;;22.97;15.9;;;5.2;99.9;;;;;;;;;
2021/03/01 01:02:25;;;;;;;22.97;15.9;;;5.2;99.9;;;;;;;;;
2021/03/01 01:02:41;;;;;;;21.37;15.2;;;5.2;99.9;;;;;;;;;
2021/03/01 01:02:51;;;;;;;21.37;15.2;;;5.2;99.9;;;;;;;;;
2021/03/01 01:03:02;;;;;;;21.37;15.2;;;5.2;99.9;;;;;;;;;
2021/03/01 01:03:06;;;;;;;21.37;15.2;;;5.2;99.9;;;;;;;;;
2021/03/01 01:03:17;;;;;;;21.37;15.2;;;5.2;99.9;;;;;;;;;
2021/03/01 01:03:27;;;;;;;21.37;15.2;;;5.2;99.9;;;;;;;;;
2021/03/01 01:03:42;;;;;;;23.1;16.37;;;5.2;99.9;;;;;;;;;
2021/03/01 01:03:52;;;;;;;23.1;16.37;;;5.2;99.9;;;;;;;;;
2021/03/01 01:04:01;;;;;;;23.1;16.37;;;5.2;99.9;;;;;;;;;
2021/03/01 01:04:08;;;;;;;23.1;16.37;;;5.2;99.9;;;;;;;;;
2021/03/01 01:04:13;;;;;;;23.1;16.37;;;5.2;99.9;;;;;;;;;
2021/03/01 01:04:33;;;;;;;23.1;16.37;;;5.2;99.9;;;;;;;;;
2021/03/01 01:04:38;;;;;;;23.1;16.37;;;5.2;99.9;;;;;;;;;
2021/03/01 01:04:54;;;;;;;24.6;15.4;;;5.3;99.9;;;;;;;;;
2021/03/01 01:05:02;;;;;;;24.6;15.4;;;5.3;99.9;;;;;;;;;
2021/03/01 01:05:04;;;;;;;24.6;15.4;;;5.3;99.9;;;;;;;;;
2021/03/01 01:05:14;;;;;;;24.6;15.4;;;5.3;99.9;;;;;;;;;
2021/03/01 01:05:30;;;;;;;24.6;15.4;;;5.3;99.9;;;;;;;;;
2021/03/01 01:05:40;;;;;;;24.6;15.4;;;5.3;99.9;;;;;;;;;
2021/03/01 01:05:55;;;;;;;19.1;13.47;;;5.2;99.9;;;;;;;;;
2021/03/01 01:06:02;;;;;;;19.1;13.47;;;5.2;99.9;;;;;;;;;
2021/03/01 01:06:06;;;;;;;19.1;13.47;;;5.2;99.9;;;;;;;;;
2021/03/01 01:06:16;;;;;;;19.1;13.47;;;5.2;99.9;;;;;;;;;
2021/03/01 01:06:26;;;;;;;19.1;13.47;;;5.2;99.9;;;;;;;;;
2021/03/01 01:06:46;;;;;;;20.77;14.57;;;5.2;99.9;;;;;;;;;
2021/03/01 01:06:52;;;;;;;20.77;14.57;;;5.2;99.9;;;;;;;;;
2021/03/01 01:07:02;;;;;;;20.77;14.57;;;5.2;99.9;;;;;;;;;
2021/03/01 01:07:07;;;;;;;20.77;14.57;;;5.2;99.9;;;;;;;;;
2021/03/01 01:07:17;;;;;;;20.77;14.57;;;5.2;99.9;;;;;;;;;
2021/03/01 01:07:27;;;;;;;20.77;14.57;;;5.2;99.9;;;;;;;;;
2021/03/01 01:07:43;;;;;;;22.7;14.77;;;5.3;99.9;;;;;;;;;
2021/03/01 01:07:53;;;;;;;22.7;14.77;;;5.3;99.9;;;;;;;;;
2021/03/01 01:08:02;;;;;;;22.7;14.77;;;5.3;99.9;;;;;;;;;
2021/03/01 01:08:08;;;;;;;22.7;14.77;;;5.3;99.9;;;;;;;;;
2021/03/01 01:08:14;;;;;;;22.7;14.77;;;5.3;99.9;;;;;;;;;
2021/03/01 01:08:29;;;;;;;22.7;14.77;;;5.3;99.9;;;;;;;;;
2021/03/01 01:08:39;;;;;;;22.7;14.77;;;5.3;99.9;;;;;;;;;
2021/03/01 01:09:00;;;;;;;26.1;15.87;;;5.3;99.9;;;;;;;;;
2021/03/01 01:09:02;;;;;;;26.1;15.87;;;5.3;99.9;;;;;;;;;
2021/03/01 01:09:05;;;;;;;26.1;15.87;;;5.3;99.9;;;;;;;;;
2021/03/01 01:09:16;;;;;;;26.1;15.87;;;5.3;99.9;;;;;;;;;
2021/03/01 01:09:30;;;;;;;26.1;15.87;;;5.3;99.9;;;;;;;;;
2021/03/01 01:09:41;;;;;;;26.1;15.87;;;5.3;99.9;;;;;;;;;
2021/03/01 01:09:56;;;;;;;20.7;14.2;;;5.3;99.9;;;;;;;;;
2021/03/01 01:10:04;;;;;;;20.7;14.2;;;5.3;99.9;;;;;;;;;
2021/03/01 01:10:06;;;;;;;20.7;14.2;;;5.3;99.9;;;;;;;;;
2021/03/01 01:10:16;;;;;;;20.7;14.2;;;5.3;99.9;;;;;;;;;
2021/03/01 01:10:27;;;;;;;20.7;14.2;;;5.3;99.9;;;;;;;;;
2021/03/01 01:10:42;;;;;;;20.7;14.2;;;5.3;99.9;;;;;;;;;
2021/03/01 01:10:52;;;;;;;20.7;15.57;;;5.3;99.9;;;;;;;;;
2021/03/01 01:11:02;;;;;;;20.7;15.57;;;5.3;99.9;;;;;;;;;
2021/03/01 01:11:13;;;;;;;20.7;15.57;;;5.3;99.9;;;;;;;;;
2021/03/01 01:11:13;;;;;;;20.7;15.57;;;5.3;99.9;;;;;;;;;
2021/03/01 01:11:28;;;;;;;20.7;15.57;;;5.3;99.9;;;;;;;;;
2021/03/01 01:11:44;;;;;;;23.83;14.97;;;5.3;99.9;;;;;;;;;
2021/03/01 01:11:54;;;;;;;23.83;14.97;;;5.3;99.9;;;;;;;;;
2021/03/01 01:12:01;;;;;;;23.83;14.97;;;5.3;99.9;;;;;;;;;
2021/03/01 01:12:09;;;;;;;23.83;14.97;;;5.3;99.9;;;;;;;;;
2021/03/01 01:12:19;;;;;;;23.83;14.97;;;5.3;99.9;;;;;;;;;
2021/03/01 01:12:30;;;;;;;23.83;14.97;;;5.3;99.9;;;;;;;;;
2021/03/01 01:12:40;;;;;;;23.83;14.97;;;5.3;99.9;;;;;;;;;
2021/03/01 01:12:55;;;;;;;20.9;15.13;;;5.3;99.9;;;;;;;;;
2021/03/01 01:13:02;;;;;;;20.9;15.13;;;5.3;99.9;;;;;;;;;
2021/03/01 01:13:05;;;;;;;20.9;15.13;;;5.3;99.9;;;;;;;;;
2021/03/01 01:13:16;;;;;;;20.9;15.13;;;5.3;99.9;;;;;;;;;
2021/03/01 01:13:26;;;;;;;20.9;15.13;;;5.3;99.9;;;;;;;;;
2021/03/01 01:13:41;;;;;;;20.9;15.13;;;5.3;99.9;;;;;;;;;
2021/03/01 01:13:57;;;;;;;22.37;14.27;;;5.2;99.9;;;;;;;;;
2021/03/01 01:14:01;;;;;;;22.37;14.27;;;5.2;99.9;;;;;;;;;
2021/03/01 01:14:07;;;;;;;22.37;14.27;;;5.2;99.9;;;;;;;;;
2021/03/01 01:14:12;;;;;;;22.37;14.27;;;5.2;99.9;;;;;;;;;
2021/03/01 01:14:33;;;;;;;22.37;14.27;;;5.2;99.9;;;;;;;;;
2021/03/01 01:14:43;;;;;;;22.37;14.27;;;5.2;99.9;;;;;;;;;
2021/03/01 01:14:53;;;;;;;24.5;15.37;;;5.2;99.9;;;;;;;;;
2021/03/01 01:15:02;;;;;;;24.5;15.37;;;5.2;99.9;;;;;;;;;
2021/03/01 01:15:08;;;;;;;24.5;15.37;;;5.2;99.9;;;;;;;;;
2021/03/01 01:15:13;;;;;;;24.5;15.37;;;5.2;99.9;;;;;;;;;
2021/03/01 01:15:29;;;;;;;24.5;15.37;;;5.2;99.9;;;;;;;;;
2021/03/01 01:15:39;;;;;;;24.5;15.37;;;5.2;99.9;;;;;;;;;
2021/03/01 01:15:54;;;;;;;22.53;13.7;;;5.2;99.9;;;;;;;;;